Time;durP1;ratioP1;P1;durP2;ratioP2;P2;SDS_P1;SDS_P2;PMS_P1;PMS_P2;Temp;Humidity;BMP_temperature;BMP_pressure;BME280_temperature;BME280_humidity;BME280_pressure;Samples;Min_cycle;Max_cycle;Signal;HPM_P1;HPM_P2
2024/04/23 00:00:55;;;;;;;3.60;1.48;;;;;;;;;;5363308;26;20108;-62
2024/04/23 00:03:24;;;;;;;4.28;1.73;;;;;;;;;;5366024;26;20008;-62
2024/04/23 00:05:49;;;;;;;3.53;1.45;;;;;;;;;;5355679;26;19999;-63
2024/04/23 00:08:18;;;;;;;3.92;1.75;;;;;;;;;;5334484;26;20176;-63
2024/04/23 00:10:46;;;;;;;6.30;1.83;;;;;;;;;;5333835;26;20012;-63
2024/04/23 00:13:14;;;;;;;2.47;1.45;;;;;;;;;;5348954;26;20085;-62
2024/04/23 00:15:40;;;;;;;4.55;1.63;;;;;;;;;;5343945;26;20036;-61
2024/04/23 00:18:09;;;;;;;6.05;1.60;;;;;;;;;;5361557;26;21536;-61
2024/04/23 00:20:34;;;;;;;2.78;1.50;;;;;;;;;;5352005;26;20119;-62
2024/04/23 00:23:02;;;;;;;6.75;1.77;;;;;;;;;;5369689;26;20038;-61
2024/04/23 00:25:28;;;;;;;4.00;1.60;;;;;;;;;;5390640;26;19999;-61
2024/04/23 00:27:59;;;;;;;5.03;1.90;;;;;;;;;;5361738;26;20000;-62
2024/04/23 00:30:25;;;;;;;3.85;1.80;;;;;;;;;;5338451;26;20017;-61
2024/04/23 00:32:53;;;;;;;6.05;2.00;;;;;;;;;;5334192;26;20009;-61
2024/04/23 00:35:19;;;;;;;3.92;1.67;;;;;;;;;;5326418;26;20008;-61
2024/04/23 00:37:47;;;;;;;3.50;1.52;;;;;;;;;;5344997;26;20015;-63
2024/04/23 00:40:13;;;;;;;5.13;1.52;;;;;;;;;;5335681;26;20009;-62
2024/04/23 00:42:42;;;;;;;2.95;1.63;;;;;;;;;;5336013;26;20077;-62
2024/04/23 00:45:14;;;;;;;3.25;1.65;;;;;;;;;;5330343;26;20045;-61
2024/04/23 00:47:45;;;;;;;5.22;1.60;;;;;;;;;;5337833;26;20080;-62
2024/04/23 00:50:11;;;;;;;6.32;1.95;;;;;;;;;;5320484;26;19998;-61
2024/04/23 00:52:40;;;;;;;4.65;1.55;;;;;;;;;;5337984;26;20028;-61
2024/04/23 00:55:06;;;;;;;2.95;1.90;;;;;;;;;;5321346;26;20100;-62
2024/04/23 00:57:35;;;;;;;4.40;1.65;;;;;;;;;;5309256;26;20002;-61
2024/04/23 01:00:01;;;;;;;3.95;1.63;;;;;;;;;;5258076;26;20072;-62
2024/04/23 01:02:34;;;;;;;4.28;1.52;;;;;;;;;;5327735;26;20048;-62
2024/04/23 01:04:59;;;;;;;2.92;1.40;;;;;;;;;;5330032;26;20025;-62
2024/04/23 01:07:28;;;;;;;3.85;1.38;;;;;;;;;;5332450;26;20001;-61
2024/04/23 01:09:54;;;;;;;6.00;1.80;;;;;;;;;;5319211;26;20064;-62
2024/04/23 01:12:22;;;;;;;2.50;1.27;;;;;;;;;;5339551;26;20084;-62
2024/04/23 01:14:49;;;;;;;8.98;1.80;;;;;;;;;;5336306;26;20005;-61
2024/04/23 01:17:18;;;;;;;4.43;1.65;;;;;;;;;;5316940;26;20002;-62
2024/04/23 01:19:55;;;;;;;6.22;1.83;;;;;;;;;;5297985;26;20100;-62
2024/04/23 01:22:30;;;;;;;5.22;1.65;;;;;;;;;;5318977;26;20013;-62
2024/04/23 01:25:00;;;;;;;3.55;1.45;;;;;;;;;;5328881;26;20039;-61
2024/04/23 01:27:32;;;;;;;4.10;1.58;;;;;;;;;;5317494;26;20017;-62
2024/04/23 01:29:59;;;;;;;2.20;1.40;;;;;;;;;;5317060;26;20053;-61
2024/04/23 01:32:28;;;;;;;3.83;1.80;;;;;;;;;;5345829;26;20051;-62
2024/04/23 01:34:55;;;;;;;5.40;1.75;;;;;;;;;;5321857;26;20033;-62
2024/04/23 01:37:25;;;;;;;4.72;1.73;;;;;;;;;;5338845;26;20057;-62
2024/04/23 01:39:52;;;;;;;6.50;1.95;;;;;;;;;;5320636;26;20173;-62
2024/04/23 01:42:20;;;;;;;3.13;1.60;;;;;;;;;;5336455;26;20016;-62
2024/04/23 01:44:49;;;;;;;3.03;1.52;;;;;;;;;;5324481;26;20001;-61
2024/04/23 01:47:18;;;;;;;4.30;1.92;;;;;;;;;;5333725;26;20000;-61
2024/04/23 01:49:44;;;;;;;3.67;1.65;;;;;;;;;;5299696;26;20010;-61
2024/04/23 01:52:13;;;;;;;4.75;1.80;;;;;;;;;;5322429;26;20001;-61
2024/04/23 01:54:39;;;;;;;5.90;1.55;;;;;;;;;;5313626;26;20021;-62
2024/04/23 01:57:09;;;;;;;3.10;1.55;;;;;;;;;;5321791;26;20048;-61
2024/04/23 01:59:39;;;;;;;4.18;1.80;;;;;;;;;;5310443;26;19997;-62
2024/04/23 02:02:10;;;;;;;4.00;1.90;;;;;;;;;;5325668;26;20174;-62
2024/04/23 02:04:37;;;;;;;5.68;1.75;;;;;;;;;;5326256;26;20005;-62
2024/04/23 02:07:06;;;;;;;3.72;1.60;;;;;;;;;;5329895;26;20011;-61
2024/04/23 02:09:32;;;;;;;6.13;2.33;;;;;;;;;;5317924;26;20005;-61
2024/04/23 02:12:01;;;;;;;6.13;1.75;;;;;;;;;;5314804;26;20068;-61
2024/04/23 02:14:26;;;;;;;;;;;;;;;;;;5299409;26;20005;-61
2024/04/23 02:16:55;;;;;;;4.18;1.65;;;;;;;;;;5324406;26;19933;-62
2024/04/23 02:19:23;;;;;;;4.35;1.75;;;;;;;;;;5336846;26;20020;-64
2024/04/23 02:21:51;;;;;;;5.47;2.00;;;;;;;;;;5326142;26;20016;-62
2024/04/23 02:24:17;;;;;;;3.67;1.80;;;;;;;;;;5314521;26;20009;-62
2024/04/23 02:26:45;;;;;;;4.18;1.80;;;;;;;;;;5335329;26;20001;-62
2024/04/23 02:29:11;;;;;;;6.38;2.10;;;;;;;;;;5329833;26;20043;-62
2024/04/23 02:31:39;;;;;;;4.88;1.98;;;;;;;;;;5334252;26;20017;-62
2024/04/23 02:34:05;;;;;;;5.03;2.08;;;;;;;;;;5332377;26;20008;-63
2024/04/23 02:36:37;;;;;;;4.53;1.98;;;;;;;;;;5362754;26;20055;-63
2024/04/23 02:39:04;;;;;;;2.95;1.50;;;;;;;;;;5361630;26;20009;-62
2024/04/23 02:41:36;;;;;;;4.55;1.65;;;;;;;;;;5358371;26;20005;-62
2024/04/23 02:44:05;;;;;;;3.72;1.90;;;;;;;;;;5312367;26;20065;-63
2024/04/23 02:46:34;;;;;;;8.07;1.80;;;;;;;;;;5333108;26;20012;-62
2024/04/23 02:48:59;;;;;;;5.75;2.00;;;;;;;;;;5368876;26;20393;-62
2024/04/23 02:51:28;;;;;;;5.22;1.83;;;;;;;;;;5346487;26;20001;-63
2024/04/23 02:53:56;;;;;;;6.38;2.10;;;;;;;;;;5333681;26;19996;-62
2024/04/23 02:56:27;;;;;;;4.45;2.00;;;;;;;;;;5313936;26;20215;-62
2024/04/23 02:58:52;;;;;;;4.30;2.00;;;;;;;;;;5304367;26;20006;-62
2024/04/23 03:01:21;;;;;;;4.70;1.90;;;;;;;;;;5326708;26;20019;-62
2024/04/23 03:03:46;;;;;;;4.10;1.63;;;;;;;;;;5303092;26;20099;-63
2024/04/23 03:06:14;;;;;;;5.85;2.30;;;;;;;;;;5345623;26;20020;-62
2024/04/23 03:08:40;;;;;;;4.63;1.92;;;;;;;;;;5362006;26;20016;-62
2024/04/23 03:11:11;;;;;;;4.18;1.80;;;;;;;;;;5388321;26;20304;-62
2024/04/23 03:13:37;;;;;;;6.68;1.83;;;;;;;;;;5372598;26;19995;-63
2024/04/23 03:16:05;;;;;;;5.57;1.90;;;;;;;;;;5367559;26;20018;-62
2024/04/23 03:18:31;;;;;;;;;;;;;;;;;;5360841;26;20012;-62
2024/04/23 03:20:59;;;;;;;5.93;1.73;;;;;;;;;;5361553;26;19957;-62
2024/04/23 03:23:25;;;;;;;6.05;2.30;;;;;;;;;;5365310;26;19999;-63
2024/04/23 03:25:53;;;;;;;4.22;1.95;;;;;;;;;;5357659;26;20015;-62
2024/04/23 03:28:22;;;;;;;5.38;1.73;;;;;;;;;;5357803;26;20119;-63
2024/04/23 03:30:50;;;;;;;4.63;2.10;;;;;;;;;;5352498;26;20019;-62
2024/04/23 03:33:16;;;;;;;4.50;2.05;;;;;;;;;;5383742;26;20001;-62
2024/04/23 03:35:47;;;;;;;6.88;2.08;;;;;;;;;;5381978;26;20017;-62
2024/04/23 03:38:15;;;;;;;5.30;2.22;;;;;;;;;;5373777;26;19998;-62
2024/04/23 03:40:43;;;;;;;4.45;2.08;;;;;;;;;;5385924;26;20004;-61
2024/04/23 03:43:11;;;;;;;5.75;2.08;;;;;;;;;;5362180;26;20005;-62
2024/04/23 03:45:42;;;;;;;4.25;1.92;;;;;;;;;;5353484;26;20000;-62
2024/04/23 03:48:11;;;;;;;6.80;2.13;;;;;;;;;;5360440;26;20031;-63
2024/04/23 03:50:36;;;;;;;5.30;2.28;;;;;;;;;;5355117;26;19997;-62
2024/04/23 03:53:05;;;;;;;5.53;2.33;;;;;;;;;;5367886;26;19999;-62
2024/04/23 03:55:30;;;;;;;5.28;2.30;;;;;;;;;;5321596;26;20005;-62
2024/04/23 03:57:59;;;;;;;11.82;2.40;;;;;;;;;;5318971;26;20125;-62
2024/04/23 04:00:24;;;;;;;4.13;1.98;;;;;;;;;;5324116;26;19997;-62
2024/04/23 04:08:26;;;;;;;6.85;2.17;;;;;;;;;;5336252;26;20016;-61
2024/04/23 04:10:55;;;;;;;4.60;2.13;;;;;;;;;;5333789;26;20000;-62
2024/04/23 04:13:20;;;;;;;4.63;2.25;;;;;;;;;;5340080;26;20016;-62
2024/04/23 04:15:49;;;;;;;7.03;2.33;;;;;;;;;;5365287;26;20015;-62
2024/04/23 04:18:18;;;;;;;5.05;2.15;;;;;;;;;;5351951;26;20011;-62
2024/04/23 04:20:46;;;;;;;5.88;2.60;;;;;;;;;;5364505;26;20000;-62
2024/04/23 04:23:12;;;;;;;7.95;2.92;;;;;;;;;;5335080;26;20023;-62
2024/04/23 04:25:40;;;;;;;4.25;2.10;;;;;;;;;;5352049;26;20004;-62
2024/04/23 04:28:06;;;;;;;6.90;2.33;;;;;;;;;;5362515;26;20020;-62
2024/04/23 04:30:34;;;;;;;5.28;2.22;;;;;;;;;;5370079;26;20019;-62
2024/04/23 04:33:00;;;;;;;4.65;2.17;;;;;;;;;;5364201;26;20004;-62
2024/04/23 04:35:31;;;;;;;10.88;2.88;;;;;;;;;;5340724;26;20000;-61
2024/04/23 04:37:57;;;;;;;5.57;2.22;;;;;;;;;;5350318;26;20012;-62
2024/04/23 04:40:25;;;;;;;5.68;2.47;;;;;;;;;;5373224;26;20019;-63
2024/04/23 04:42:51;;;;;;;5.13;2.45;;;;;;;;;;5369769;26;20161;-62
2024/04/23 04:45:20;;;;;;;4.32;2.22;;;;;;;;;;5311690;26;20009;-62
2024/04/23 04:47:48;;;;;;;7.38;2.53;;;;;;;;;;5339012;26;20028;-62
2024/04/23 04:50:17;;;;;;;4.65;2.33;;;;;;;;;;5359343;26;20008;-62
2024/04/23 04:52:46;;;;;;;7.60;3.03;;;;;;;;;;5362883;26;20043;-62
2024/04/23 04:55:14;;;;;;;6.80;3.00;;;;;;;;;;5294531;26;20065;-62
2024/04/23 04:57:40;;;;;;;8.13;3.03;;;;;;;;;;5357685;26;20004;-63
2024/04/23 05:00:12;;;;;;;5.80;2.38;;;;;;;;;;5365692;26;20015;-62
2024/04/23 05:02:38;;;;;;;8.10;2.83;;;;;;;;;;5373817;26;20011;-62
2024/04/23 05:05:08;;;;;;;6.88;2.97;;;;;;;;;;5310162;26;20008;-61
2024/04/23 05:07:34;;;;;;;5.38;2.58;;;;;;;;;;5342290;26;20020;-61
2024/04/23 05:10:06;;;;;;;7.28;2.90;;;;;;;;;;5343235;26;20014;-62
2024/04/23 05:12:34;;;;;;;7.05;2.85;;;;;;;;;;5355401;26;20008;-62
2024/04/23 05:15:03;;;;;;;;;;;;;;;;;;5335456;26;20129;-62
2024/04/23 05:17:31;;;;;;;3.80;1.73;;;;;;;;;;5353354;26;19925;-61
2024/04/23 05:19:59;;;;;;;6.20;2.70;;;;;;;;;;5335376;26;20074;-61
2024/04/23 05:22:25;;;;;;;9.73;2.53;;;;;;;;;;5312901;26;20008;-62
2024/04/23 05:24:54;;;;;;;6.32;2.47;;;;;;;;;;5327262;26;20007;-61
2024/04/23 05:27:22;;;;;;;;;;;;;;;;;;5330097;26;20017;-62
2024/04/23 05:29:54;;;;;;;4.20;2.13;;;;;;;;;;5329234;26;19998;-62
2024/04/23 05:35:08;;;;;;;6.25;3.00;;;;;;;;;;5305706;26;20020;-62
2024/04/23 05:37:41;;;;;;;5.95;2.58;;;;;;;;;;5320458;26;20001;-62
2024/04/23 05:40:12;;;;;;;7.60;3.20;;;;;;;;;;5316064;26;20005;-61
2024/04/23 05:42:44;;;;;;;7.07;2.83;;;;;;;;;;5322259;26;20105;-62
2024/04/23 05:45:15;;;;;;;7.15;3.42;;;;;;;;;;5340397;26;20067;-62
2024/04/23 05:48:21;;;;;;;6.13;2.97;;;;;;;;;;5347082;26;20013;-62
2024/04/23 05:51:24;;;;;;;36.38;16.45;;;;;;;;;;5364728;26;20031;-62
2024/04/23 05:54:29;;;;;;;14.90;5.03;;;;;;;;;;5343358;26;20015;-62
2024/04/23 05:56:58;;;;;;;5.47;2.80;;;;;;;;;;5348873;26;20019;-64
2024/04/23 05:59:26;;;;;;;6.53;2.85;;;;;;;;;;5367222;26;20016;-61
2024/04/23 06:01:55;;;;;;;7.15;3.22;;;;;;;;;;5374704;26;20011;-61
2024/04/23 06:04:20;;;;;;;7.03;3.53;;;;;;;;;;5343454;26;20000;-61
2024/04/23 06:06:50;;;;;;;20.10;9.60;;;;;;;;;;5332509;26;20023;-62
2024/04/23 06:09:16;;;;;;;18.73;9.52;;;;;;;;;;5330973;26;20396;-61
2024/04/23 06:11:50;;;;;;;10.75;5.43;;;;;;;;;;5328080;26;20019;-62
2024/04/23 06:14:16;;;;;;;10.82;4.13;;;;;;;;;;5309762;26;20005;-61
2024/04/23 06:16:46;;;;;;;8.85;3.88;;;;;;;;;;5338962;26;20016;-63
2024/04/23 06:19:15;;;;;;;8.35;3.72;;;;;;;;;;5337948;26;20005;-62
2024/04/23 06:21:40;;;;;;;8.55;3.60;;;;;;;;;;5336599;26;20017;-62
2024/04/23 06:24:09;;;;;;;11.00;4.28;;;;;;;;;;5329536;26;19997;-61
2024/04/23 06:26:35;;;;;;;10.82;3.78;;;;;;;;;;5354259;26;20052;-62
2024/04/23 06:29:03;;;;;;;7.95;3.58;;;;;;;;;;5361719;26;20039;-62
2024/04/23 06:31:30;;;;;;;8.13;3.60;;;;;;;;;;5365263;26;20005;-62
2024/04/23 06:34:03;;;;;;;10.35;3.92;;;;;;;;;;5330639;26;20003;-62
2024/04/23 06:36:29;;;;;;;15.63;6.35;;;;;;;;;;5345381;26;20009;-61
2024/04/23 06:38:57;;;;;;;11.40;5.05;;;;;;;;;;5363598;26;20004;-62
2024/04/23 06:41:23;;;;;;;9.95;4.50;;;;;;;;;;5373598;26;20008;-62
2024/04/23 06:43:51;;;;;;;11.15;4.22;;;;;;;;;;5329560;26;20000;-62
2024/04/23 06:46:17;;;;;;;9.10;3.97;;;;;;;;;;5346902;26;20023;-62
2024/04/23 06:48:45;;;;;;;8.10;3.38;;;;;;;;;;5363125;26;20000;-62
2024/04/23 06:51:14;;;;;;;9.82;4.45;;;;;;;;;;5353993;26;20025;-62
2024/04/23 06:53:45;;;;;;;10.13;4.10;;;;;;;;;;5343399;26;20040;-62
2024/04/23 06:56:11;;;;;;;18.40;6.18;;;;;;;;;;5364989;26;20014;-62
2024/04/23 06:58:39;;;;;;;21.17;9.80;;;;;;;;;;5355108;26;20012;-63
2024/04/23 07:01:05;;;;;;;14.48;6.43;;;;;;;;;;5359626;26;20001;-62
2024/04/23 07:03:33;;;;;;;9.30;4.00;;;;;;;;;;5348979;26;20019;-61
2024/04/23 07:06:01;;;;;;;13.13;3.88;;;;;;;;;;5309049;26;20067;-62
2024/04/23 07:08:30;;;;;;;9.45;4.90;;;;;;;;;;5326184;26;20015;-61
2024/04/23 07:10:59;;;;;;;11.73;4.78;;;;;;;;;;5328653;26;20078;-62
2024/04/23 07:13:24;;;;;;;9.00;4.25;;;;;;;;;;5314779;26;20912;-61
2024/04/23 07:15:53;;;;;;;14.00;5.55;;;;;;;;;;5249828;26;20053;-62
2024/04/23 07:18:18;;;;;;;11.15;4.93;;;;;;;;;;5315839;26;20034;-61
2024/04/23 07:20:52;;;;;;;11.15;4.72;;;;;;;;;;5326634;26;20016;-61
2024/04/23 07:23:17;;;;;;;12.55;4.95;;;;;;;;;;5326687;26;20024;-61
2024/04/23 07:25:53;;;;;;;12.20;4.82;;;;;;;;;;5285092;26;20035;-61
2024/04/23 07:28:20;;;;;;;10.27;5.07;;;;;;;;;;5307841;26;20017;-62
2024/04/23 07:30:48;;;;;;;9.02;4.07;;;;;;;;;;5323427;26;20086;-61
2024/04/23 07:33:16;;;;;;;9.35;4.15;;;;;;;;;;5302654;26;20001;-61
2024/04/23 07:35:45;;;;;;;8.13;4.32;;;;;;;;;;5331802;26;20035;-61
2024/04/23 07:38:11;;;;;;;10.23;5.20;;;;;;;;;;5311873;26;19998;-61
2024/04/23 07:40:39;;;;;;;10.75;4.57;;;;;;;;;;5308313;26;20024;-61
2024/04/23 07:43:07;;;;;;;;;;;;;;;;;;5308532;26;20084;-61
2024/04/23 07:45:36;;;;;;;10.90;4.57;;;;;;;;;;5298480;26;19999;-63
2024/04/23 07:48:02;;;;;;;9.27;4.75;;;;;;;;;;5342205;26;20007;-61
2024/04/23 07:50:31;;;;;;;9.85;4.47;;;;;;;;;;5364089;26;20004;-61
2024/04/23 07:52:59;;;;;;;10.82;4.88;;;;;;;;;;5362046;26;20000;-60
2024/04/23 07:55:28;;;;;;;9.75;4.75;;;;;;;;;;5327310;26;20067;-61
2024/04/23 07:57:54;;;;;;;11.02;4.97;;;;;;;;;;5352012;26;20001;-62
2024/04/23 08:00:27;;;;;;;10.10;5.15;;;;;;;;;;5364784;26;20019;-61
2024/04/23 08:02:54;;;;;;;10.93;4.32;;;;;;;;;;5352759;26;19996;-61
2024/04/23 08:05:22;;;;;;;15.95;5.70;;;;;;;;;;5341007;26;20004;-62
2024/04/23 08:08:07;;;;;;;12.07;6.38;;;;;;;;;;5354963;26;20044;-61
2024/04/23 08:10:38;;;;;;;12.35;5.88;;;;;;;;;;5363583;26;20013;-62
2024/04/23 08:13:04;;;;;;;8.13;4.00;;;;;;;;;;5366571;26;20498;-61
2024/04/23 08:15:35;;;;;;;11.38;5.43;;;;;;;;;;5317576;26;20012;-62
2024/04/23 08:18:01;;;;;;;11.88;5.38;;;;;;;;;;5361129;26;20019;-62
2024/04/23 08:20:29;;;;;;;9.35;4.53;;;;;;;;;;5369059;26;20012;-61
2024/04/23 08:22:55;;;;;;;8.80;4.13;;;;;;;;;;5360802;26;20001;-62
2024/04/23 08:25:24;;;;;;;12.02;5.35;;;;;;;;;;5352198;26;20004;-61
2024/04/23 08:27:49;;;;;;;;;;;;;;;;;;5338862;26;20020;-62
2024/04/23 08:30:20;;;;;;;10.85;5.00;;;;;;;;;;5366386;26;19925;-62
2024/04/23 08:32:48;;;;;;;8.15;4.15;;;;;;;;;;5342037;26;20001;-62
2024/04/23 08:35:18;;;;;;;;;;;;;;;;;;5330647;26;20043;-62
2024/04/23 08:37:44;;;;;;;10.50;3.85;;;;;;;;;;5326657;26;19933;-61
2024/04/23 08:40:17;;;;;;;9.85;4.90;;;;;;;;;;5310456;26;20008;-63
2024/04/23 08:42:44;;;;;;;8.18;4.07;;;;;;;;;;5348716;26;20134;-62
2024/04/23 08:45:13;;;;;;;9.07;3.88;;;;;;;;;;5333513;26;20465;-62
2024/04/23 08:47:40;;;;;;;8.85;4.10;;;;;;;;;;5375416;26;20004;-63
2024/04/23 08:50:12;;;;;;;7.47;3.65;;;;;;;;;;5364914;26;20066;-62
2024/04/23 08:52:37;;;;;;;10.65;4.38;;;;;;;;;;5356986;26;20054;-62
2024/04/23 08:55:07;;;;;;;7.15;3.60;;;;;;;;;;5338182;26;20009;-61
2024/04/23 08:57:39;;;;;;;11.98;4.30;;;;;;;;;;5328131;26;20008;-62
2024/04/23 09:00:09;;;;;;;8.38;4.30;;;;;;;;;;5323117;26;20141;-62
2024/04/23 09:02:36;;;;;;;8.70;3.75;;;;;;;;;;5323113;26;20117;-61
2024/04/23 09:05:11;;;;;;;10.05;3.88;;;;;;;;;;5335990;26;20014;-63
2024/04/23 09:07:39;;;;;;;7.30;3.42;;;;;;;;;;5355184;26;20019;-61
2024/04/23 09:10:09;;;;;;;8.70;4.18;;;;;;;;;;5350711;26;20004;-61
2024/04/23 09:12:34;;;;;;;10.68;4.85;;;;;;;;;;5365047;26;20093;-63
2024/04/23 09:15:07;;;;;;;12.32;4.55;;;;;;;;;;5336154;26;20016;-63
2024/04/23 09:17:33;;;;;;;9.20;3.67;;;;;;;;;;5347802;26;20023;-64
2024/04/23 09:20:02;;;;;;;8.35;3.85;;;;;;;;;;5361277;26;20039;-62
2024/04/23 09:22:31;;;;;;;9.52;4.28;;;;;;;;;;5364354;26;20028;-64
2024/04/23 09:25:03;;;;;;;8.88;4.15;;;;;;;;;;5333767;26;20001;-63
2024/04/23 09:27:36;;;;;;;11.60;4.05;;;;;;;;;;5327192;26;20020;-63
2024/04/23 09:30:04;;;;;;;9.68;4.03;;;;;;;;;;5302324;26;20001;-61
2024/04/23 09:32:30;;;;;;;6.20;2.72;;;;;;;;;;5329255;26;20016;-61
2024/04/23 09:34:58;;;;;;;8.73;3.92;;;;;;;;;;5332429;26;20032;-60
2024/04/23 09:37:24;;;;;;;10.13;3.67;;;;;;;;;;5362255;26;20051;-61
2024/04/23 09:40:03;;;;;;;11.05;4.35;;;;;;;;;;5355117;26;20020;-61
2024/04/23 09:42:29;;;;;;;8.30;3.78;;;;;;;;;;5354575;26;20104;-62
2024/04/23 09:44:57;;;;;;;7.75;3.53;;;;;;;;;;5329977;26;20017;-63
2024/04/23 09:47:23;;;;;;;7.43;2.83;;;;;;;;;;5320331;26;20006;-63
2024/04/23 09:49:55;;;;;;;6.47;2.95;;;;;;;;;;5316184;26;20001;-62
2024/04/23 09:52:29;;;;;;;6.43;3.05;;;;;;;;;;5333838;26;20023;-63
2024/04/23 09:55:00;;;;;;;5.88;2.85;;;;;;;;;;5320261;26;20017;-63
2024/04/23 09:57:27;;;;;;;5.60;2.55;;;;;;;;;;5283393;26;20014;-63
2024/04/23 09:59:56;;;;;;;9.37;2.63;;;;;;;;;;5306683;26;20029;-64
2024/04/23 10:02:27;;;;;;;;;;;;;;;;;;5361066;26;20082;-63
2024/04/23 10:05:02;;;;;;;9.07;3.80;;;;;;;;;;5365911;26;19938;-63
2024/04/23 10:07:31;;;;;;;9.70;3.33;;;;;;;;;;5338402;26;20003;-64
2024/04/23 10:10:04;;;;;;;;;;;;;;;;;;5338318;26;19997;-64
2024/04/23 10:12:34;;;;;;;8.57;3.55;;;;;;;;;;5330966;26;19958;-63
2024/04/23 10:15:11;;;;;;;8.05;3.70;;;;;;;;;;5330100;26;20005;-63
2024/04/23 10:17:44;;;;;;;9.10;3.60;;;;;;;;;;5321322;26;19997;-64
2024/04/23 10:20:17;;;;;;;11.40;3.45;;;;;;;;;;5325420;26;20005;-64
2024/04/23 10:22:43;;;;;;;7.75;3.40;;;;;;;;;;5312507;26;20310;-62
2024/04/23 10:25:14;;;;;;;7.93;3.08;;;;;;;;;;5320934;26;20017;-62
2024/04/23 10:27:40;;;;;;;7.53;3.30;;;;;;;;;;5290308;26;20478;-63
2024/04/23 10:30:12;;;;;;;10.18;3.80;;;;;;;;;;5317667;26;20013;-62
2024/04/23 10:32:42;;;;;;;7.63;3.90;;;;;;;;;;5308437;26;20037;-62
2024/04/23 10:35:12;;;;;;;8.50;3.42;;;;;;;;;;5332587;26;20009;-62
2024/04/23 10:37:39;;;;;;;9.57;3.80;;;;;;;;;;5307466;26;20020;-62
2024/04/23 10:40:09;;;;;;;19.13;7.47;;;;;;;;;;5330928;26;20074;-62
2024/04/23 10:42:38;;;;;;;10.07;4.40;;;;;;;;;;5332400;26;20025;-62
2024/04/23 10:45:07;;;;;;;8.48;3.53;;;;;;;;;;5311130;26;20016;-62
2024/04/23 10:47:33;;;;;;;9.70;3.83;;;;;;;;;;5315328;26;20009;-63
2024/04/23 10:50:10;;;;;;;6.88;3.00;;;;;;;;;;5328044;26;20020;-62
2024/04/23 10:52:36;;;;;;;6.10;3.05;;;;;;;;;;5325042;26;20057;-62
2024/04/23 10:55:13;;;;;;;7.40;2.78;;;;;;;;;;5336637;26;20015;-62
2024/04/23 10:57:42;;;;;;;8.88;3.70;;;;;;;;;;5295378;26;20001;-62
2024/04/23 11:00:10;;;;;;;;;;;;;;;;;;5320418;26;20013;-61
2024/04/23 11:02:36;;;;;;;11.82;3.95;;;;;;;;;;5328374;26;19998;-62
2024/04/23 11:05:05;;;;;;;7.00;3.28;;;;;;;;;;5329775;26;20016;-62
2024/04/23 11:07:32;;;;;;;4.85;2.50;;;;;;;;;;5305842;26;20128;-62
2024/04/23 11:10:08;;;;;;;6.47;2.50;;;;;;;;;;5367018;26;20056;-62
2024/04/23 11:12:36;;;;;;;5.15;2.30;;;;;;;;;;5356594;26;20004;-62
2024/04/23 11:15:17;;;;;;;6.35;3.08;;;;;;;;;;5357824;26;20020;-63
2024/04/23 11:17:43;;;;;;;9.18;3.30;;;;;;;;;;5334958;26;19996;-63
2024/04/23 11:20:14;;;;;;;7.78;2.90;;;;;;;;;;5349077;26;20009;-62
2024/04/23 11:22:44;;;;;;;6.13;2.90;;;;;;;;;;5354289;26;20022;-61
2024/04/23 11:28:29;;;;;;;5.88;2.88;;;;;;;;;;5273532;26;20289;-63
2024/04/23 11:30:58;;;;;;;5.57;2.25;;;;;;;;;;5318531;26;20001;-63
2024/04/23 11:33:35;;;;;;;7.63;3.00;;;;;;;;;;5307316;26;20001;-62
2024/04/23 11:36:02;;;;;;;6.43;3.13;;;;;;;;;;5332994;26;20013;-63
2024/04/23 11:38:42;;;;;;;6.22;2.92;;;;;;;;;;5339057;26;20040;-62
2024/04/23 11:41:11;;;;;;;7.60;2.97;;;;;;;;;;5336915;26;20005;-62
2024/04/23 11:43:43;;;;;;;6.43;2.38;;;;;;;;;;5328005;26;19997;-62
2024/04/23 11:46:12;;;;;;;5.53;2.40;;;;;;;;;;5302515;26;20004;-61
2024/04/23 11:48:42;;;;;;;4.97;2.33;;;;;;;;;;5236052;26;20140;-63
2024/04/23 11:51:08;;;;;;;9.43;2.55;;;;;;;;;;5278446;26;20025;-62
2024/04/23 11:53:37;;;;;;;4.47;2.22;;;;;;;;;;5299918;26;20020;-62
2024/04/23 11:56:07;;;;;;;6.13;2.40;;;;;;;;;;5310673;26;20112;-63
2024/04/23 11:58:40;;;;;;;6.38;2.20;;;;;;;;;;5339130;26;20008;-63
2024/04/23 12:01:05;;;;;;;7.00;2.28;;;;;;;;;;5329891;26;20009;-62
2024/04/23 12:03:39;;;;;;;6.32;2.28;;;;;;;;;;5316691;26;20009;-63
2024/04/23 12:06:06;;;;;;;6.80;2.60;;;;;;;;;;5334301;26;20126;-63
2024/04/23 12:08:37;;;;;;;5.18;2.33;;;;;;;;;;5292621;26;20029;-63
2024/04/23 12:11:07;;;;;;;3.88;2.00;;;;;;;;;;5334635;26;20001;-63
2024/04/23 12:13:35;;;;;;;4.47;2.05;;;;;;;;;;5333901;26;20036;-64
2024/04/23 12:16:04;;;;;;;4.57;1.95;;;;;;;;;;5349075;26;20005;-63
2024/04/23 12:18:33;;;;;;;7.38;2.30;;;;;;;;;;5309801;26;20075;-62
2024/04/23 12:21:02;;;;;;;;;;;;;;;;;;5362911;26;20015;-63
2024/04/23 12:23:37;;;;;;;4.40;2.17;;;;;;;;;;5384771;26;20842;-63
2024/04/23 12:26:05;;;;;;;6.88;2.08;;;;;;;;;;5382639;26;20015;-62
2024/04/23 12:28:39;;;;;;;6.53;2.58;;;;;;;;;;5328223;26;20001;-62
2024/04/23 12:31:11;;;;;;;7.47;2.72;;;;;;;;;;5357519;26;20015;-62
2024/04/23 12:33:37;;;;;;;9.38;3.20;;;;;;;;;;5361761;26;20012;-63
2024/04/23 12:36:13;;;;;;;4.38;2.22;;;;;;;;;;5369623;26;20005;-63
2024/04/23 12:38:41;;;;;;;5.15;2.30;;;;;;;;;;5248075;26;20072;-62
2024/04/23 12:41:10;;;;;;;5.23;2.27;;;;;;;;;;5255510;26;20012;-63
2024/04/23 12:43:35;;;;;;;7.45;2.20;;;;;;;;;;5271699;26;20243;-62
2024/04/23 12:46:07;;;;;;;7.38;2.45;;;;;;;;;;5335146;26;20016;-63
2024/04/23 12:48:33;;;;;;;5.43;2.35;;;;;;;;;;5313850;26;20001;-63
2024/04/23 12:51:01;;;;;;;6.18;2.08;;;;;;;;;;5339573;26;20008;-63
2024/04/23 12:53:30;;;;;;;5.28;2.50;;;;;;;;;;5318428;26;20006;-63
2024/04/23 12:55:58;;;;;;;;;;;;;;;;;;5329265;26;20018;-62
2024/04/23 12:58:27;;;;;;;5.82;2.28;;;;;;;;;;5311953;26;19925;-63
2024/04/23 13:00:55;;;;;;;6.05;2.42;;;;;;;;;;5361102;26;20020;-62
2024/04/23 13:03:28;;;;;;;;;;;;;;;;;;5355433;26;20008;-63
2024/04/23 13:05:57;;;;;;;4.53;2.00;;;;;;;;;;5371125;26;19932;-63
2024/04/23 13:08:23;;;;;;;;;;;;;;;;;;5345164;26;20009;-62
2024/04/23 13:10:55;;;;;;;7.75;2.53;;;;;;;;;;5337305;26;19934;-62
2024/04/23 13:13:25;;;;;;;9.50;2.50;;;;;;;;;;5345231;26;19997;-64
2024/04/23 13:15:54;;;;;;;6.93;2.22;;;;;;;;;;5329125;26;20042;-63
2024/04/23 13:18:22;;;;;;;4.93;2.42;;;;;;;;;;5290962;26;20027;-63
2024/04/23 13:20:50;;;;;;;6.87;3.07;;;;;;;;;;5344658;26;20016;-63
2024/04/23 13:23:16;;;;;;;9.27;4.00;;;;;;;;;;5374445;26;20074;-62
2024/04/23 13:25:45;;;;;;;6.00;2.40;;;;;;;;;;5355332;26;20047;-64
2024/04/23 13:28:13;;;;;;;8.80;2.72;;;;;;;;;;5326352;26;20079;-63
2024/04/23 13:30:41;;;;;;;6.70;2.58;;;;;;;;;;5380270;26;20007;-63
2024/04/23 13:33:07;;;;;;;5.18;2.38;;;;;;;;;;5367021;26;20000;-63
2024/04/23 13:35:35;;;;;;;4.95;2.53;;;;;;;;;;5357900;26;20005;-63
2024/04/23 13:38:01;;;;;;;6.78;2.60;;;;;;;;;;5277790;26;20099;-63
2024/04/23 13:40:29;;;;;;;5.82;2.83;;;;;;;;;;5332583;26;20039;-62
2024/04/23 13:42:55;;;;;;;5.85;2.20;;;;;;;;;;5359772;26;20039;-62
2024/04/23 13:45:32;;;;;;;4.90;2.03;;;;;;;;;;5374919;26;20699;-62
2024/04/23 13:48:01;;;;;;;5.28;2.10;;;;;;;;;;5329213;26;20000;-63
2024/04/23 13:50:29;;;;;;;5.70;2.40;;;;;;;;;;5348904;26;20004;-64
2024/04/23 13:52:55;;;;;;;7.50;2.65;;;;;;;;;;5378571;26;20004;-63
2024/04/23 13:55:23;;;;;;;7.75;2.70;;;;;;;;;;5355549;26;20011;-64
2024/04/23 13:57:49;;;;;;;6.18;2.80;;;;;;;;;;5303588;26;20010;-63
2024/04/23 14:00:18;;;;;;;5.57;2.88;;;;;;;;;;5314407;26;20008;-63
2024/04/23 14:02:46;;;;;;;5.40;2.38;;;;;;;;;;5394771;26;19999;-63
2024/04/23 14:05:17;;;;;;;6.75;2.63;;;;;;;;;;5397392;26;20087;-62
2024/04/23 14:07:45;;;;;;;6.00;2.60;;;;;;;;;;5356400;26;20004;-62
2024/04/23 14:10:15;;;;;;;;;;;;;;;;;;5365700;26;20004;-63
2024/04/23 14:12:43;;;;;;;7.82;3.20;;;;;;;;;;5352410;26;19925;-64
2024/04/23 14:15:20;;;;;;;7.50;3.08;;;;;;;;;;5359198;26;20032;-64
2024/04/23 14:17:49;;;;;;;6.47;3.20;;;;;;;;;;5301493;26;20010;-63
2024/04/23 14:20:17;;;;;;;6.22;2.80;;;;;;;;;;5290067;26;20033;-63
2024/04/23 14:22:43;;;;;;;6.15;2.45;;;;;;;;;;5320635;26;20002;-62
2024/04/23 14:25:13;;;;;;;7.38;2.40;;;;;;;;;;5324424;26;20001;-62
2024/04/23 14:27:42;;;;;;;4.68;2.33;;;;;;;;;;5320900;26;20012;-63
2024/04/23 14:30:10;;;;;;;;;;;;;;;;;;5268306;26;20016;-61
2024/04/23 14:32:36;;;;;;;5.95;2.53;;;;;;;;;;5363783;26;19932;-62
2024/04/23 14:35:10;;;;;;;7.38;2.53;;;;;;;;;;5365172;26;20056;-64
2024/04/23 14:37:37;;;;;;;6.57;2.40;;;;;;;;;;5351844;26;20024;-62
2024/04/23 14:40:10;;;;;;;6.78;2.88;;;;;;;;;;5298106;26;20024;-64
2024/04/23 14:42:38;;;;;;;7.43;3.08;;;;;;;;;;5352257;26;20008;-63
2024/04/23 14:45:09;;;;;;;4.78;2.47;;;;;;;;;;5375017;26;20000;-63
2024/04/23 14:47:35;;;;;;;6.85;2.80;;;;;;;;;;5354438;26;20011;-62
2024/04/23 14:50:06;;;;;;;7.75;3.15;;;;;;;;;;5280842;26;20005;-62
2024/04/23 14:52:35;;;;;;;7.65;3.47;;;;;;;;;;5360212;26;20004;-62
2024/04/23 14:55:06;;;;;;;4.40;2.33;;;;;;;;;;5368833;26;20385;-64
2024/04/23 14:57:32;;;;;;;8.25;2.63;;;;;;;;;;5356735;26;20004;-65
2024/04/23 15:00:00;;;;;;;4.28;2.40;;;;;;;;;;5362941;26;20022;-63
2024/04/23 15:02:26;;;;;;;6.85;2.60;;;;;;;;;;5360179;26;20000;-63
2024/04/23 15:04:54;;;;;;;6.68;2.83;;;;;;;;;;5368969;26;20007;-63
2024/04/23 15:07:22;;;;;;;5.05;2.63;;;;;;;;;;5356920;26;20005;-63